sensor_id;sensor_type;location;lat;lon;timestamp;P1;durP1;ratioP1;P2;durP2;ratioP2
27438;SDS011;14887;51.252;7.470;2022-07-06T00:01:27;9.23;;;3.40;;
27438;SDS011;14887;51.252;7.470;2022-07-06T00:03:53;5.07;;;2.40;;
27438;SDS011;14887;51.252;7.470;2022-07-06T00:06:19;6.50;;;2.57;;
27438;SDS011;14887;51.252;7.470;2022-07-06T00:08:44;15.33;;;3.13;;
27438;SDS011;14887;51.252;7.470;2022-07-06T00:11:10;3.93;;;3.13;;
27438;SDS011;14887;51.252;7.470;2022-07-06T00:13:36;5.40;;;2.67;;
27438;SDS011;14887;51.252;7.470;2022-07-06T00:16:02;11.10;;;2.50;;
27438;SDS011;14887;51.252;7.470;2022-07-06T00:18:27;3.80;;;2.43;;
27438;SDS011;14887;51.252;7.470;2022-07-06T00:20:53;7.10;;;2.40;;
27438;SDS011;14887;51.252;7.470;2022-07-06T00:23:19;4.20;;;2.60;;
27438;SDS011;14887;51.252;7.470;2022-07-06T00:25:44;2.90;;;2.70;;
27438;SDS011;14887;51.252;7.470;2022-07-06T00:28:10;4.10;;;2.43;;
27438;SDS011;14887;51.252;7.470;2022-07-06T00:30:36;4.67;;;2.77;;
27438;SDS011;14887;51.252;7.470;2022-07-06T00:33:01;3.77;;;2.50;;
27438;SDS011;14887;51.252;7.470;2022-07-06T00:35:27;11.53;;;3.20;;
27438;SDS011;14887;51.252;7.470;2022-07-06T00:37:53;5.83;;;4.50;;
27438;SDS011;14887;51.252;7.470;2022-07-06T00:40:18;4.70;;;2.70;;
27438;SDS011;14887;51.252;7.470;2022-07-06T00:42:45;5.70;;;2.93;;
27438;SDS011;14887;51.252;7.470;2022-07-06T00:45:12;5.60;;;3.03;;
27438;SDS011;14887;51.252;7.470;2022-07-06T00:47:40;4.40;;;3.10;;
27438;SDS011;14887;51.252;7.470;2022-07-06T00:50:07;3.80;;;2.83;;
27438;SDS011;14887;51.252;7.470;2022-07-06T00:52:43;5.70;;;2.87;;
27438;SDS011;14887;51.252;7.470;2022-07-06T00:55:11;6.27;;;2.73;;
27438;SDS011;14887;51.252;7.470;2022-07-06T00:57:38;5.43;;;3.00;;
27438;SDS011;14887;51.252;7.470;2022-07-06T01:00:05;5.87;;;2.70;;
27438;SDS011;14887;51.252;7.470;2022-07-06T01:02:32;9.13;;;3.10;;
27438;SDS011;14887;51.252;7.470;2022-07-06T01:04:59;5.10;;;3.10;;
27438;SDS011;14887;51.252;7.470;2022-07-06T01:07:25;3.73;;;3.40;;
27438;SDS011;14887;51.252;7.470;2022-07-06T01:09:51;10.77;;;3.40;;
27438;SDS011;14887;51.252;7.470;2022-07-06T01:12:16;10.63;;;3.77;;
27438;SDS011;14887;51.252;7.470;2022-07-06T01:14:43;6.40;;;3.30;;
27438;SDS011;14887;51.252;7.470;2022-07-06T01:17:09;12.77;;;3.60;;
27438;SDS011;14887;51.252;7.470;2022-07-06T01:19:35;5.07;;;2.80;;
27438;SDS011;14887;51.252;7.470;2022-07-06T01:22:01;4.17;;;3.20;;
27438;SDS011;14887;51.252;7.470;2022-07-06T01:24:27;11.73;;;3.20;;
27438;SDS011;14887;51.252;7.470;2022-07-06T01:26:52;12.43;;;4.57;;
27438;SDS011;14887;51.252;7.470;2022-07-06T01:29:18;5.50;;;2.80;;
27438;SDS011;14887;51.252;7.470;2022-07-06T01:31:47;13.90;;;4.60;;
27438;SDS011;14887;51.252;7.470;2022-07-06T01:34:14;11.57;;;4.10;;
27438;SDS011;14887;51.252;7.470;2022-07-06T01:36:44;10.97;;;3.20;;
27438;SDS011;14887;51.252;7.470;2022-07-06T01:39:10;9.03;;;4.23;;
27438;SDS011;14887;51.252;7.470;2022-07-06T01:41:35;4.80;;;4.00;;
27438;SDS011;14887;51.252;7.470;2022-07-06T01:44:02;12.93;;;5.37;;
27438;SDS011;14887;51.252;7.470;2022-07-06T01:46:28;7.60;;;3.53;;
27438;SDS011;14887;51.252;7.470;2022-07-06T01:48:54;11.10;;;3.93;;
27438;SDS011;14887;51.252;7.470;2022-07-06T01:51:20;9.17;;;4.47;;
27438;SDS011;14887;51.252;7.470;2022-07-06T01:53:45;12.50;;;3.77;;
27438;SDS011;14887;51.252;7.470;2022-07-06T01:56:12;6.30;;;3.93;;
27438;SDS011;14887;51.252;7.470;2022-07-06T01:58:37;8.90;;;3.60;;
27438;SDS011;14887;51.252;7.470;2022-07-06T02:01:10;10.77;;;4.33;;
27438;SDS011;14887;51.252;7.470;2022-07-06T02:03:37;7.53;;;3.67;;
27438;SDS011;14887;51.252;7.470;2022-07-06T02:06:03;9.23;;;3.90;;
27438;SDS011;14887;51.252;7.470;2022-07-06T02:08:30;12.40;;;4.43;;
27438;SDS011;14887;51.252;7.470;2022-07-06T02:10:57;16.37;;;3.83;;
27438;SDS011;14887;51.252;7.470;2022-07-06T02:13:22;7.70;;;3.80;;
27438;SDS011;14887;51.252;7.470;2022-07-06T02:15:48;11.07;;;4.90;;
27438;SDS011;14887;51.252;7.470;2022-07-06T02:18:14;10.63;;;3.73;;
27438;SDS011;14887;51.252;7.470;2022-07-06T02:20:39;5.77;;;3.67;;
27438;SDS011;14887;51.252;7.470;2022-07-06T02:23:05;5.00;;;4.00;;
27438;SDS011;14887;51.252;7.470;2022-07-06T02:25:31;8.80;;;3.93;;
27438;SDS011;14887;51.252;7.470;2022-07-06T02:27:56;12.07;;;3.60;;
27438;SDS011;14887;51.252;7.470;2022-07-06T02:30:22;8.07;;;4.47;;
27438;SDS011;14887;51.252;7.470;2022-07-06T02:32:47;5.30;;;3.63;;
27438;SDS011;14887;51.252;7.470;2022-07-06T02:35:13;9.80;;;4.67;;
27438;SDS011;14887;51.252;7.470;2022-07-06T02:37:39;10.03;;;4.00;;
27438;SDS011;14887;51.252;7.470;2022-07-06T02:40:04;5.70;;;4.00;;
27438;SDS011;14887;51.252;7.470;2022-07-06T02:42:31;17.33;;;4.57;;
27438;SDS011;14887;51.252;7.470;2022-07-06T02:44:56;9.27;;;4.40;;
27438;SDS011;14887;51.252;7.470;2022-07-06T02:47:22;5.17;;;4.10;;
27438;SDS011;14887;51.252;7.470;2022-07-06T02:49:47;8.90;;;4.47;;
27438;SDS011;14887;51.252;7.470;2022-07-06T02:52:13;6.73;;;3.57;;
27438;SDS011;14887;51.252;7.470;2022-07-06T02:54:38;10.63;;;3.80;;
27438;SDS011;14887;51.252;7.470;2022-07-06T02:57:04;7.80;;;4.40;;
27438;SDS011;14887;51.252;7.470;2022-07-06T02:59:30;5.43;;;3.63;;
27438;SDS011;14887;51.252;7.470;2022-07-06T03:01:55;17.97;;;4.20;;
27438;SDS011;14887;51.252;7.470;2022-07-06T03:04:21;5.40;;;3.47;;
27438;SDS011;14887;51.252;7.470;2022-07-06T03:06:46;8.60;;;4.50;;
27438;SDS011;14887;51.252;7.470;2022-07-06T03:09:12;8.80;;;4.00;;
27438;SDS011;14887;51.252;7.470;2022-07-06T03:11:37;6.50;;;3.87;;
27438;SDS011;14887;51.252;7.470;2022-07-06T03:14:03;7.13;;;4.07;;
27438;SDS011;14887;51.252;7.470;2022-07-06T03:16:29;3.83;;;3.23;;
27438;SDS011;14887;51.252;7.470;2022-07-06T03:18:55;5.73;;;4.17;;
27438;SDS011;14887;51.252;7.470;2022-07-06T03:21:21;12.20;;;4.10;;
27438;SDS011;14887;51.252;7.470;2022-07-06T03:23:48;7.17;;;3.87;;
27438;SDS011;14887;51.252;7.470;2022-07-06T03:26:13;7.47;;;3.73;;
27438;SDS011;14887;51.252;7.470;2022-07-06T03:28:39;9.47;;;4.27;;
27438;SDS011;14887;51.252;7.470;2022-07-06T03:31:04;9.63;;;3.93;;
27438;SDS011;14887;51.252;7.470;2022-07-06T03:33:30;12.33;;;3.80;;
27438;SDS011;14887;51.252;7.470;2022-07-06T03:35:55;8.43;;;4.07;;
27438;SDS011;14887;51.252;7.470;2022-07-06T03:38:22;6.40;;;4.43;;
27438;SDS011;14887;51.252;7.470;2022-07-06T03:40:47;8.13;;;4.20;;
27438;SDS011;14887;51.252;7.470;2022-07-06T03:43:13;7.50;;;3.90;;
27438;SDS011;14887;51.252;7.470;2022-07-06T03:45:38;5.13;;;3.40;;
27438;SDS011;14887;51.252;7.470;2022-07-06T03:48:04;3.80;;;3.40;;
27438;SDS011;14887;51.252;7.470;2022-07-06T03:50:30;10.27;;;4.40;;
27438;SDS011;14887;51.252;7.470;2022-07-06T03:52:55;3.97;;;3.50;;
27438;SDS011;14887;51.252;7.470;2022-07-06T03:55:21;7.43;;;3.50;;
27438;SDS011;14887;51.252;7.470;2022-07-06T03:57:46;9.33;;;3.80;;
27438;SDS011;14887;51.252;7.470;2022-07-06T04:00:12;8.07;;;3.63;;
27438;SDS011;14887;51.252;7.470;2022-07-06T04:02:38;5.00;;;3.30;;
27438;SDS011;14887;51.252;7.470;2022-07-06T04:05:04;12.17;;;4.07;;
27438;SDS011;14887;51.252;7.470;2022-07-06T04:07:30;13.50;;;3.67;;
27438;SDS011;14887;51.252;7.470;2022-07-06T04:09:55;8.00;;;3.53;;
27438;SDS011;14887;51.252;7.470;2022-07-06T04:12:21;6.20;;;3.63;;
27438;SDS011;14887;51.252;7.470;2022-07-06T04:14:46;7.07;;;3.67;;
27438;SDS011;14887;51.252;7.470;2022-07-06T04:17:12;4.57;;;3.23;;
27438;SDS011;14887;51.252;7.470;2022-07-06T04:19:56;6.10;;;3.47;;
27438;SDS011;14887;51.252;7.470;2022-07-06T04:22:22;9.80;;;3.70;;
27438;SDS011;14887;51.252;7.470;2022-07-06T04:24:47;8.13;;;2.77;;
27438;SDS011;14887;51.252;7.470;2022-07-06T04:27:13;6.67;;;3.23;;
27438;SDS011;14887;51.252;7.470;2022-07-06T04:29:38;9.43;;;3.23;;
27438;SDS011;14887;51.252;7.470;2022-07-06T04:32:04;5.93;;;3.10;;
27438;SDS011;14887;51.252;7.470;2022-07-06T04:34:30;4.80;;;3.00;;
27438;SDS011;14887;51.252;7.470;2022-07-06T04:36:55;5.80;;;3.43;;
27438;SDS011;14887;51.252;7.470;2022-07-06T04:39:21;7.60;;;3.50;;
27438;SDS011;14887;51.252;7.470;2022-07-06T04:41:46;4.60;;;2.93;;
27438;SDS011;14887;51.252;7.470;2022-07-06T04:44:12;3.83;;;3.13;;
27438;SDS011;14887;51.252;7.470;2022-07-06T04:46:37;11.13;;;3.90;;
27438;SDS011;14887;51.252;7.470;2022-07-06T04:49:03;8.13;;;2.60;;
27438;SDS011;14887;51.252;7.470;2022-07-06T04:51:28;6.40;;;3.63;;
27438;SDS011;14887;51.252;7.470;2022-07-06T04:53:54;8.40;;;3.80;;
27438;SDS011;14887;51.252;7.470;2022-07-06T04:56:19;7.03;;;2.67;;
27438;SDS011;14887;51.252;7.470;2022-07-06T04:58:45;3.60;;;3.10;;
27438;SDS011;14887;51.252;7.470;2022-07-06T05:01:11;5.70;;;2.80;;
27438;SDS011;14887;51.252;7.470;2022-07-06T05:03:36;10.03;;;3.50;;
27438;SDS011;14887;51.252;7.470;2022-07-06T05:06:05;9.03;;;2.87;;
27438;SDS011;14887;51.252;7.470;2022-07-06T05:08:31;9.10;;;3.37;;
27438;SDS011;14887;51.252;7.470;2022-07-06T05:10:57;14.27;;;3.57;;
27438;SDS011;14887;51.252;7.470;2022-07-06T05:13:23;7.30;;;3.47;;
27438;SDS011;14887;51.252;7.470;2022-07-06T05:15:49;11.13;;;3.10;;
27438;SDS011;14887;51.252;7.470;2022-07-06T05:18:14;5.20;;;2.87;;
27438;SDS011;14887;51.252;7.470;2022-07-06T05:20:40;7.03;;;3.10;;
27438;SDS011;14887;51.252;7.470;2022-07-06T05:23:05;6.20;;;3.13;;
27438;SDS011;14887;51.252;7.470;2022-07-06T05:25:31;11.17;;;3.20;;
27438;SDS011;14887;51.252;7.470;2022-07-06T05:27:57;5.97;;;3.37;;
27438;SDS011;14887;51.252;7.470;2022-07-06T05:30:23;10.63;;;3.10;;
27438;SDS011;14887;51.252;7.470;2022-07-06T05:32:49;10.53;;;3.37;;
27438;SDS011;14887;51.252;7.470;2022-07-06T05:35:15;9.77;;;3.80;;
27438;SDS011;14887;51.252;7.470;2022-07-06T05:37:41;9.67;;;2.90;;
27438;SDS011;14887;51.252;7.470;2022-07-06T05:40:07;11.37;;;2.80;;
27438;SDS011;14887;51.252;7.470;2022-07-06T05:42:33;9.03;;;3.37;;
27438;SDS011;14887;51.252;7.470;2022-07-06T05:44:58;12.50;;;3.30;;
27438;SDS011;14887;51.252;7.470;2022-07-06T05:47:24;7.30;;;3.23;;
27438;SDS011;14887;51.252;7.470;2022-07-06T05:50:08;10.70;;;2.40;;
27438;SDS011;14887;51.252;7.470;2022-07-06T05:52:43;6.20;;;3.27;;
27438;SDS011;14887;51.252;7.470;2022-07-06T05:55:19;9.93;;;3.40;;
27438;SDS011;14887;51.252;7.470;2022-07-06T05:57:44;13.87;;;3.47;;
27438;SDS011;14887;51.252;7.470;2022-07-06T06:00:10;8.60;;;3.40;;
27438;SDS011;14887;51.252;7.470;2022-07-06T06:02:39;18.50;;;4.33;;
27438;SDS011;14887;51.252;7.470;2022-07-06T06:05:06;8.03;;;3.90;;
27438;SDS011;14887;51.252;7.470;2022-07-06T06:07:36;12.47;;;4.20;;
27438;SDS011;14887;51.252;7.470;2022-07-06T06:10:03;12.50;;;4.50;;
27438;SDS011;14887;51.252;7.470;2022-07-06T06:12:30;13.93;;;3.70;;
27438;SDS011;14887;51.252;7.470;2022-07-06T06:14:56;17.57;;;3.67;;
27438;SDS011;14887;51.252;7.470;2022-07-06T06:17:21;12.27;;;3.67;;
27438;SDS011;14887;51.252;7.470;2022-07-06T06:19:47;6.17;;;3.87;;
27438;SDS011;14887;51.252;7.470;2022-07-06T06:22:13;8.10;;;3.90;;
27438;SDS011;14887;51.252;7.470;2022-07-06T06:24:39;10.60;;;3.03;;
27438;SDS011;14887;51.252;7.470;2022-07-06T06:27:04;19.13;;;3.70;;
27438;SDS011;14887;51.252;7.470;2022-07-06T06:29:30;11.87;;;3.63;;
27438;SDS011;14887;51.252;7.470;2022-07-06T06:31:56;9.40;;;3.17;;
27438;SDS011;14887;51.252;7.470;2022-07-06T06:34:21;4.00;;;2.17;;
27438;SDS011;14887;51.252;7.470;2022-07-06T06:36:47;5.70;;;2.50;;
27438;SDS011;14887;51.252;7.470;2022-07-06T06:39:12;6.90;;;2.53;;
27438;SDS011;14887;51.252;7.470;2022-07-06T06:41:38;8.00;;;3.00;;
27438;SDS011;14887;51.252;7.470;2022-07-06T06:44:03;10.67;;;2.73;;
27438;SDS011;14887;51.252;7.470;2022-07-06T06:46:29;8.50;;;2.37;;
27438;SDS011;14887;51.252;7.470;2022-07-06T06:48:55;7.87;;;2.13;;
27438;SDS011;14887;51.252;7.470;2022-07-06T06:51:20;10.47;;;2.30;;
27438;SDS011;14887;51.252;7.470;2022-07-06T06:53:46;12.90;;;2.50;;
27438;SDS011;14887;51.252;7.470;2022-07-06T06:56:12;6.20;;;2.13;;
27438;SDS011;14887;51.252;7.470;2022-07-06T06:58:38;5.90;;;2.03;;
27438;SDS011;14887;51.252;7.470;2022-07-06T07:01:03;6.90;;;2.10;;
27438;SDS011;14887;51.252;7.470;2022-07-06T07:03:29;6.23;;;2.07;;
27438;SDS011;14887;51.252;7.470;2022-07-06T07:05:55;4.33;;;1.53;;
27438;SDS011;14887;51.252;7.470;2022-07-06T07:08:21;3.07;;;1.80;;
27438;SDS011;14887;51.252;7.470;2022-07-06T07:10:47;5.50;;;2.37;;
27438;SDS011;14887;51.252;7.470;2022-07-06T07:13:12;7.50;;;2.10;;
27438;SDS011;14887;51.252;7.470;2022-07-06T07:15:38;9.10;;;2.07;;
27438;SDS011;14887;51.252;7.470;2022-07-06T07:18:03;6.13;;;1.83;;
27438;SDS011;14887;51.252;7.470;2022-07-06T07:20:29;2.87;;;1.80;;
27438;SDS011;14887;51.252;7.470;2022-07-06T07:22:56;2.87;;;1.63;;
27438;SDS011;14887;51.252;7.470;2022-07-06T07:25:22;4.93;;;1.90;;
27438;SDS011;14887;51.252;7.470;2022-07-06T07:27:48;4.50;;;1.50;;
27438;SDS011;14887;51.252;7.470;2022-07-06T07:30:13;8.13;;;1.97;;
27438;SDS011;14887;51.252;7.470;2022-07-06T07:32:39;7.83;;;2.23;;
27438;SDS011;14887;51.252;7.470;2022-07-06T07:35:08;6.53;;;2.47;;
27438;SDS011;14887;51.252;7.470;2022-07-06T07:37:33;4.57;;;1.73;;
27438;SDS011;14887;51.252;7.470;2022-07-06T07:39:59;4.50;;;2.10;;
27438;SDS011;14887;51.252;7.470;2022-07-06T07:42:25;4.67;;;1.70;;
27438;SDS011;14887;51.252;7.470;2022-07-06T07:44:51;5.83;;;2.00;;
27438;SDS011;14887;51.252;7.470;2022-07-06T07:47:17;5.00;;;2.27;;
27438;SDS011;14887;51.252;7.470;2022-07-06T07:49:42;4.10;;;1.67;;
27438;SDS011;14887;51.252;7.470;2022-07-06T07:52:08;5.17;;;1.30;;
27438;SDS011;14887;51.252;7.470;2022-07-06T07:54:34;6.77;;;1.67;;
27438;SDS011;14887;51.252;7.470;2022-07-06T07:57:00;7.33;;;1.77;;
27438;SDS011;14887;51.252;7.470;2022-07-06T07:59:25;2.67;;;1.60;;
27438;SDS011;14887;51.252;7.470;2022-07-06T08:01:51;8.33;;;2.10;;
27438;SDS011;14887;51.252;7.470;2022-07-06T08:04:17;4.00;;;1.60;;
27438;SDS011;14887;51.252;7.470;2022-07-06T08:06:43;2.20;;;1.40;;
27438;SDS011;14887;51.252;7.470;2022-07-06T08:09:08;7.07;;;1.70;;
27438;SDS011;14887;51.252;7.470;2022-07-06T08:11:34;5.53;;;2.10;;
27438;SDS011;14887;51.252;7.470;2022-07-06T08:14:00;9.00;;;2.40;;
27438;SDS011;14887;51.252;7.470;2022-07-06T08:16:27;4.93;;;1.97;;
27438;SDS011;14887;51.252;7.470;2022-07-06T08:18:52;4.00;;;2.20;;
27438;SDS011;14887;51.252;7.470;2022-07-06T08:21:18;11.80;;;2.10;;
27438;SDS011;14887;51.252;7.470;2022-07-06T08:23:43;6.73;;;1.97;;
27438;SDS011;14887;51.252;7.470;2022-07-06T08:26:09;2.63;;;1.43;;
27438;SDS011;14887;51.252;7.470;2022-07-06T08:28:35;4.43;;;1.83;;
27438;SDS011;14887;51.252;7.470;2022-07-06T08:31:00;5.53;;;1.60;;
27438;SDS011;14887;51.252;7.470;2022-07-06T08:33:26;9.13;;;1.60;;
27438;SDS011;14887;51.252;7.470;2022-07-06T08:35:51;1.73;;;1.43;;
27438;SDS011;14887;51.252;7.470;2022-07-06T08:38:17;8.10;;;1.50;;
27438;SDS011;14887;51.252;7.470;2022-07-06T08:40:43;8.13;;;1.90;;
27438;SDS011;14887;51.252;7.470;2022-07-06T08:43:13;3.10;;;1.30;;
27438;SDS011;14887;51.252;7.470;2022-07-06T08:45:40;7.20;;;1.87;;
27438;SDS011;14887;51.252;7.470;2022-07-06T08:48:08;4.67;;;1.43;;
27438;SDS011;14887;51.252;7.470;2022-07-06T08:50:35;3.77;;;1.50;;
27438;SDS011;14887;51.252;7.470;2022-07-06T08:53:01;3.10;;;1.07;;
27438;SDS011;14887;51.252;7.470;2022-07-06T08:55:27;2.83;;;1.77;;
27438;SDS011;14887;51.252;7.470;2022-07-06T08:57:56;7.87;;;1.27;;
27438;SDS011;14887;51.252;7.470;2022-07-06T09:00:22;2.17;;;1.30;;
27438;SDS011;14887;51.252;7.470;2022-07-06T09:02:50;2.80;;;1.20;;
27438;SDS011;14887;51.252;7.470;2022-07-06T09:05:18;8.40;;;1.07;;
27438;SDS011;14887;51.252;7.470;2022-07-06T09:07:48;2.00;;;1.43;;
27438;SDS011;14887;51.252;7.470;2022-07-06T09:10:15;6.67;;;1.13;;
27438;SDS011;14887;51.252;7.470;2022-07-06T09:12:43;3.40;;;0.93;;
27438;SDS011;14887;51.252;7.470;2022-07-06T09:15:08;5.33;;;0.90;;
27438;SDS011;14887;51.252;7.470;2022-07-06T09:17:37;4.00;;;1.40;;
27438;SDS011;14887;51.252;7.470;2022-07-06T09:20:06;4.80;;;1.07;;
27438;SDS011;14887;51.252;7.470;2022-07-06T09:22:33;8.03;;;1.60;;
27438;SDS011;14887;51.252;7.470;2022-07-06T09:25:17;6.97;;;1.70;;
27438;SDS011;14887;51.252;7.470;2022-07-06T09:27:44;2.23;;;1.00;;
27438;SDS011;14887;51.252;7.470;2022-07-06T09:30:12;10.50;;;1.57;;
27438;SDS011;14887;51.252;7.470;2022-07-06T09:32:48;5.20;;;1.80;;
27438;SDS011;14887;51.252;7.470;2022-07-06T09:35:58;5.70;;;1.30;;
27438;SDS011;14887;51.252;7.470;2022-07-06T09:38:14;3.50;;;1.10;;
27438;SDS011;14887;51.252;7.470;2022-07-06T09:40:41;10.03;;;1.33;;
27438;SDS011;14887;51.252;7.470;2022-07-06T09:43:08;3.37;;;1.00;;
27438;SDS011;14887;51.252;7.470;2022-07-06T09:45:34;2.93;;;1.30;;
27438;SDS011;14887;51.252;7.470;2022-07-06T09:48:20;1.27;;;0.90;;
27438;SDS011;14887;51.252;7.470;2022-07-06T09:50:51;5.70;;;0.87;;
27438;SDS011;14887;51.252;7.470;2022-07-06T09:53:27;2.00;;;1.03;;
27438;SDS011;14887;51.252;7.470;2022-07-06T09:55:54;3.63;;;0.90;;
27438;SDS011;14887;51.252;7.470;2022-07-06T09:58:23;3.37;;;1.13;;
27438;SDS011;14887;51.252;7.470;2022-07-06T10:00:49;7.77;;;1.90;;
27438;SDS011;14887;51.252;7.470;2022-07-06T10:03:15;2.97;;;1.00;;
27438;SDS011;14887;51.252;7.470;2022-07-06T10:05:42;0.80;;;0.77;;
27438;SDS011;14887;51.252;7.470;2022-07-06T10:08:11;7.07;;;1.00;;
27438;SDS011;14887;51.252;7.470;2022-07-06T10:10:39;1.57;;;1.00;;
27438;SDS011;14887;51.252;7.470;2022-07-06T10:13:06;2.07;;;0.90;;
27438;SDS011;14887;51.252;7.470;2022-07-06T10:15:33;4.27;;;1.10;;
27438;SDS011;14887;51.252;7.470;2022-07-06T10:18:02;2.20;;;0.90;;
27438;SDS011;14887;51.252;7.470;2022-07-06T10:20:33;1.30;;;0.83;;
27438;SDS011;14887;51.252;7.470;2022-07-06T10:23:04;2.70;;;1.00;;
27438;SDS011;14887;51.252;7.470;2022-07-06T10:25:31;1.70;;;1.10;;
27438;SDS011;14887;51.252;7.470;2022-07-06T10:27:58;2.50;;;1.20;;
27438;SDS011;14887;51.252;7.470;2022-07-06T10:30:24;1.70;;;1.00;;
27438;SDS011;14887;51.252;7.470;2022-07-06T10:32:51;4.87;;;1.67;;
27438;SDS011;14887;51.252;7.470;2022-07-06T10:35:19;4.47;;;1.10;;
27438;SDS011;14887;51.252;7.470;2022-07-06T10:37:45;4.57;;;1.27;;
27438;SDS011;14887;51.252;7.470;2022-07-06T10:40:34;5.23;;;1.37;;
27438;SDS011;14887;51.252;7.470;2022-07-06T10:43:18;2.00;;;1.20;;
27438;SDS011;14887;51.252;7.470;2022-07-06T10:50:35;4.77;;;1.40;;
27438;SDS011;14887;51.252;7.470;2022-07-06T10:53:01;4.63;;;1.57;;
27438;SDS011;14887;51.252;7.470;2022-07-06T10:55:31;3.57;;;1.57;;
27438;SDS011;14887;51.252;7.470;2022-07-06T10:58:01;3.13;;;1.90;;
27438;SDS011;14887;51.252;7.470;2022-07-06T11:00:50;2.97;;;1.83;;
27438;SDS011;14887;51.252;7.470;2022-07-06T11:03:33;3.20;;;1.20;;
27438;SDS011;14887;51.252;7.470;2022-07-06T11:11:38;2.83;;;1.20;;
27438;SDS011;14887;51.252;7.470;2022-07-06T11:14:03;2.40;;;1.23;;
27438;SDS011;14887;51.252;7.470;2022-07-06T11:19:14;1.30;;;1.20;;
27438;SDS011;14887;51.252;7.470;2022-07-06T11:21:45;8.63;;;1.67;;
27438;SDS011;14887;51.252;7.470;2022-07-06T11:24:17;3.70;;;1.60;;
27438;SDS011;14887;51.252;7.470;2022-07-06T11:26:54;3.50;;;1.57;;
27438;SDS011;14887;51.252;7.470;2022-07-06T11:29:21;4.00;;;1.70;;
27438;SDS011;14887;51.252;7.470;2022-07-06T11:31:49;5.40;;;1.40;;
27438;SDS011;14887;51.252;7.470;2022-07-06T11:34:28;4.47;;;1.53;;
27438;SDS011;14887;51.252;7.470;2022-07-06T11:36:59;3.07;;;1.60;;
27438;SDS011;14887;51.252;7.470;2022-07-06T11:39:44;5.33;;;1.70;;
27438;SDS011;14887;51.252;7.470;2022-07-06T11:42:14;1.80;;;1.23;;
27438;SDS011;14887;51.252;7.470;2022-07-06T11:44:42;4.33;;;1.83;;
27438;SDS011;14887;51.252;7.470;2022-07-06T11:47:08;4.90;;;1.40;;
27438;SDS011;14887;51.252;7.470;2022-07-06T11:49:35;9.13;;;1.80;;
27438;SDS011;14887;51.252;7.470;2022-07-06T11:52:05;4.10;;;1.40;;
27438;SDS011;14887;51.252;7.470;2022-07-06T11:54:33;6.00;;;1.33;;
27438;SDS011;14887;51.252;7.470;2022-07-06T11:56:58;1.77;;;1.10;;
27438;SDS011;14887;51.252;7.470;2022-07-06T11:59:26;3.37;;;1.03;;
27438;SDS011;14887;51.252;7.470;2022-07-06T12:04:42;2.50;;;1.07;;
27438;SDS011;14887;51.252;7.470;2022-07-06T12:07:10;3.53;;;1.60;;
27438;SDS011;14887;51.252;7.470;2022-07-06T12:09:41;1.60;;;1.10;;
27438;SDS011;14887;51.252;7.470;2022-07-06T12:12:08;3.73;;;1.10;;
27438;SDS011;14887;51.252;7.470;2022-07-06T12:14:36;4.80;;;1.50;;
27438;SDS011;14887;51.252;7.470;2022-07-06T12:17:03;2.73;;;1.27;;
27438;SDS011;14887;51.252;7.470;2022-07-06T12:19:29;2.37;;;1.10;;
27438;SDS011;14887;51.252;7.470;2022-07-06T12:21:54;2.47;;;1.30;;
27438;SDS011;14887;51.252;7.470;2022-07-06T12:24:23;2.93;;;1.10;;
27438;SDS011;14887;51.252;7.470;2022-07-06T12:26:50;4.43;;;1.20;;
27438;SDS011;14887;51.252;7.470;2022-07-06T12:29:17;4.47;;;1.17;;
27438;SDS011;14887;51.252;7.470;2022-07-06T12:34:16;3.43;;;1.40;;
27438;SDS011;14887;51.252;7.470;2022-07-06T12:36:48;2.80;;;1.17;;
27438;SDS011;14887;51.252;7.470;2022-07-06T12:39:15;2.80;;;1.10;;
27438;SDS011;14887;51.252;7.470;2022-07-06T12:44:20;4.50;;;1.27;;
27438;SDS011;14887;51.252;7.470;2022-07-06T12:46:47;2.60;;;1.03;;
27438;SDS011;14887;51.252;7.470;2022-07-06T12:49:33;5.20;;;1.63;;
27438;SDS011;14887;51.252;7.470;2022-07-06T12:52:01;5.40;;;1.40;;
27438;SDS011;14887;51.252;7.470;2022-07-06T12:54:34;2.60;;;1.43;;
27438;SDS011;14887;51.252;7.470;2022-07-06T12:57:17;2.00;;;1.20;;
27438;SDS011;14887;51.252;7.470;2022-07-06T13:02:22;1.70;;;0.90;;
27438;SDS011;14887;51.252;7.470;2022-07-06T13:04:59;2.63;;;1.27;;
27438;SDS011;14887;51.252;7.470;2022-07-06T13:07:28;4.73;;;1.10;;
27438;SDS011;14887;51.252;7.470;2022-07-06T13:09:56;2.70;;;1.10;;
27438;SDS011;14887;51.252;7.470;2022-07-06T13:12:23;3.43;;;1.83;;
27438;SDS011;14887;51.252;7.470;2022-07-06T13:14:50;1.70;;;1.10;;
27438;SDS011;14887;51.252;7.470;2022-07-06T13:17:16;4.87;;;1.20;;
27438;SDS011;14887;51.252;7.470;2022-07-06T13:19:42;2.07;;;1.50;;
27438;SDS011;14887;51.252;7.470;2022-07-06T13:22:07;2.00;;;0.97;;
27438;SDS011;14887;51.252;7.470;2022-07-06T13:24:33;3.07;;;1.30;;
27438;SDS011;14887;51.252;7.470;2022-07-06T13:26:59;3.30;;;1.20;;
27438;SDS011;14887;51.252;7.470;2022-07-06T13:29:25;3.97;;;1.40;;
27438;SDS011;14887;51.252;7.470;2022-07-06T13:31:50;4.00;;;1.70;;
27438;SDS011;14887;51.252;7.470;2022-07-06T13:34:16;4.70;;;1.43;;
27438;SDS011;14887;51.252;7.470;2022-07-06T13:36:42;2.50;;;1.37;;
27438;SDS011;14887;51.252;7.470;2022-07-06T13:39:07;7.33;;;1.60;;
27438;SDS011;14887;51.252;7.470;2022-07-06T13:41:34;2.60;;;1.53;;
27438;SDS011;14887;51.252;7.470;2022-07-06T13:44:00;2.17;;;1.90;;
27438;SDS011;14887;51.252;7.470;2022-07-06T13:46:26;3.63;;;1.43;;
27438;SDS011;14887;51.252;7.470;2022-07-06T13:48:53;2.83;;;1.30;;
27438;SDS011;14887;51.252;7.470;2022-07-06T13:51:19;2.43;;;1.10;;
27438;SDS011;14887;51.252;7.470;2022-07-06T13:53:45;2.83;;;1.80;;
27438;SDS011;14887;51.252;7.470;2022-07-06T13:56:11;2.97;;;2.23;;
27438;SDS011;14887;51.252;7.470;2022-07-06T13:58:37;2.13;;;1.20;;
27438;SDS011;14887;51.252;7.470;2022-07-06T14:01:03;8.27;;;1.40;;
27438;SDS011;14887;51.252;7.470;2022-07-06T14:03:29;2.30;;;0.90;;
27438;SDS011;14887;51.252;7.470;2022-07-06T14:05:58;2.10;;;1.40;;
27438;SDS011;14887;51.252;7.470;2022-07-06T14:08:25;3.30;;;1.03;;
27438;SDS011;14887;51.252;7.470;2022-07-06T14:10:51;0.83;;;0.83;;
27438;SDS011;14887;51.252;7.470;2022-07-06T14:13:18;4.43;;;1.23;;
27438;SDS011;14887;51.252;7.470;2022-07-06T14:15:43;4.30;;;1.30;;
27438;SDS011;14887;51.252;7.470;2022-07-06T14:18:09;4.10;;;1.20;;
27438;SDS011;14887;51.252;7.470;2022-07-06T14:20:35;1.53;;;1.10;;
27438;SDS011;14887;51.252;7.470;2022-07-06T14:23:01;1.70;;;1.00;;
27438;SDS011;14887;51.252;7.470;2022-07-06T14:25:26;2.73;;;1.47;;
27438;SDS011;14887;51.252;7.470;2022-07-06T14:27:52;3.00;;;1.40;;
27438;SDS011;14887;51.252;7.470;2022-07-06T14:30:17;7.33;;;1.50;;
27438;SDS011;14887;51.252;7.470;2022-07-06T14:32:43;1.80;;;1.07;;
27438;SDS011;14887;51.252;7.470;2022-07-06T14:35:09;3.27;;;1.20;;
27438;SDS011;14887;51.252;7.470;2022-07-06T14:37:35;2.07;;;1.10;;
27438;SDS011;14887;51.252;7.470;2022-07-06T14:40:01;8.13;;;2.13;;
27438;SDS011;14887;51.252;7.470;2022-07-06T14:42:27;5.27;;;1.03;;
27438;SDS011;14887;51.252;7.470;2022-07-06T14:44:52;3.23;;;1.20;;
27438;SDS011;14887;51.252;7.470;2022-07-06T14:47:18;3.07;;;1.20;;
27438;SDS011;14887;51.252;7.470;2022-07-06T14:49:43;1.57;;;1.10;;
27438;SDS011;14887;51.252;7.470;2022-07-06T14:52:09;4.97;;;1.60;;
27438;SDS011;14887;51.252;7.470;2022-07-06T14:54:35;1.30;;;1.20;;
27438;SDS011;14887;51.252;7.470;2022-07-06T14:57:01;6.47;;;1.33;;
27438;SDS011;14887;51.252;7.470;2022-07-06T14:59:29;2.00;;;1.33;;
27438;SDS011;14887;51.252;7.470;2022-07-06T15:01:55;3.77;;;1.30;;
27438;SDS011;14887;51.252;7.470;2022-07-06T15:04:21;5.97;;;1.87;;
27438;SDS011;14887;51.252;7.470;2022-07-06T15:06:47;4.73;;;1.43;;
27438;SDS011;14887;51.252;7.470;2022-07-06T15:09:13;3.20;;;1.80;;